KSTL/STL METAR and TAF weather

Enter ICAO airport designator
Station Type Date Time Source
KSTL METAR 2019/08/25 14:51 UTC NOAA

KSTL 251451Z 10009KT 10SM BKN040 BKN100 21/15 A3001 RMK AO2 SLP156 VCSH W-NW T02110150 58001


Station Type Date Time Source
KSTL Decoded METAR 2019/08/25 14:51 UTC NOAA

Station name not available
Aug 25, 2019 - 10:51 AM EDT / 2019.08.25 1451 UTC
Wind: from the E (100 degrees) at 10 MPH (9 KT):0
Visibility: 10 mile(s):0
Sky conditions: mostly cloudy
Temperature: 70.0 F (21.1 C)
Dew Point: 59.0 F (15.0 C)
Relative Humidity: 68%
Pressure (altimeter): 30.01 in. Hg (1016 hPa)
Pressure tendency: 0.00 inches (0.1 hPa) lower than three hours ago
ob: KSTL 251451Z 10009KT 10SM BKN040 BKN100 21/15 A3001 RMK AO2 SLP156 VCSH W-NW T02110150 58001
cycle: 15

Station Type Date Time Source
KSTL TAF 2019/08/25 14:24 UTC NOAA

TAF
AMD KSTL 251421Z 2514/2618 11007KT P6SM VCSH OVC035
TEMPO 2514/2516 4SM -SHRA OVC025
FM252000 10007KT P6SM VCTS OVC050CB
FM260400 12005KT P6SM VCSH OVC025
FM260900 15005KT P6SM OVC018

Example: see airport list